sensor_id;sensor_type;location;lat;lon;timestamp;P1;durP1;ratioP1;P2;durP2;ratioP2
15899;SDS011;8048;50.644;6.184;2022-12-08T00:01:25;16.00;;;12.97;;
15899;SDS011;8048;50.644;6.184;2022-12-08T00:03:53;15.90;;;11.53;;
15899;SDS011;8048;50.644;6.184;2022-12-08T00:06:21;14.07;;;11.57;;
15899;SDS011;8048;50.644;6.184;2022-12-08T00:09:24;14.53;;;10.50;;
15899;SDS011;8048;50.644;6.184;2022-12-08T00:12:00;9.73;;;8.47;;
15899;SDS011;8048;50.644;6.184;2022-12-08T00:14:37;11.77;;;8.00;;
15899;SDS011;8048;50.644;6.184;2022-12-08T00:17:05;13.50;;;9.20;;
15899;SDS011;8048;50.644;6.184;2022-12-08T00:19:31;8.83;;;7.93;;
15899;SDS011;8048;50.644;6.184;2022-12-08T00:21:58;10.80;;;8.33;;
15899;SDS011;8048;50.644;6.184;2022-12-08T00:24:24;10.00;;;8.63;;
15899;SDS011;8048;50.644;6.184;2022-12-08T00:26:58;16.70;;;10.20;;
15899;SDS011;8048;50.644;6.184;2022-12-08T00:29:23;9.90;;;8.93;;
15899;SDS011;8048;50.644;6.184;2022-12-08T00:31:49;13.10;;;9.50;;
15899;SDS011;8048;50.644;6.184;2022-12-08T00:34:14;10.30;;;7.80;;
15899;SDS011;8048;50.644;6.184;2022-12-08T00:36:40;14.73;;;9.70;;
15899;SDS011;8048;50.644;6.184;2022-12-08T00:39:06;13.53;;;10.13;;
15899;SDS011;8048;50.644;6.184;2022-12-08T00:41:32;11.23;;;10.10;;
15899;SDS011;8048;50.644;6.184;2022-12-08T00:44:16;19.07;;;10.00;;
15899;SDS011;8048;50.644;6.184;2022-12-08T00:46:45;11.13;;;8.47;;
15899;SDS011;8048;50.644;6.184;2022-12-08T00:49:11;13.87;;;9.97;;
15899;SDS011;8048;50.644;6.184;2022-12-08T00:51:37;9.33;;;8.33;;
15899;SDS011;8048;50.644;6.184;2022-12-08T00:54:04;13.40;;;9.97;;
15899;SDS011;8048;50.644;6.184;2022-12-08T00:56:30;18.63;;;10.37;;
15899;SDS011;8048;50.644;6.184;2022-12-08T00:58:56;11.60;;;10.10;;
15899;SDS011;8048;50.644;6.184;2022-12-08T01:01:22;9.60;;;7.23;;
15899;SDS011;8048;50.644;6.184;2022-12-08T01:03:47;9.87;;;7.60;;
15899;SDS011;8048;50.644;6.184;2022-12-08T01:06:13;8.00;;;7.17;;
15899;SDS011;8048;50.644;6.184;2022-12-08T01:08:39;8.53;;;7.67;;
15899;SDS011;8048;50.644;6.184;2022-12-08T01:11:06;8.97;;;7.90;;
15899;SDS011;8048;50.644;6.184;2022-12-08T01:13:33;9.53;;;8.20;;
15899;SDS011;8048;50.644;6.184;2022-12-08T01:15:59;9.53;;;8.70;;
15899;SDS011;8048;50.644;6.184;2022-12-08T01:18:25;12.07;;;9.93;;
15899;SDS011;8048;50.644;6.184;2022-12-08T01:20:52;9.43;;;8.00;;
15899;SDS011;8048;50.644;6.184;2022-12-08T01:23:17;15.40;;;9.80;;
15899;SDS011;8048;50.644;6.184;2022-12-08T01:25:43;17.27;;;8.27;;
15899;SDS011;8048;50.644;6.184;2022-12-08T01:28:09;9.13;;;6.67;;
15899;SDS011;8048;50.644;6.184;2022-12-08T01:30:36;17.13;;;8.70;;
15899;SDS011;8048;50.644;6.184;2022-12-08T01:33:02;11.27;;;9.67;;
15899;SDS011;8048;50.644;6.184;2022-12-08T01:35:28;12.03;;;9.03;;
15899;SDS011;8048;50.644;6.184;2022-12-08T01:37:53;10.20;;;9.20;;
15899;SDS011;8048;50.644;6.184;2022-12-08T01:40:19;10.07;;;7.00;;
15899;SDS011;8048;50.644;6.184;2022-12-08T01:42:44;11.37;;;8.80;;
15899;SDS011;8048;50.644;6.184;2022-12-08T01:45:26;18.50;;;10.37;;
15899;SDS011;8048;50.644;6.184;2022-12-08T01:47:54;13.20;;;9.40;;
15899;SDS011;8048;50.644;6.184;2022-12-08T01:50:23;10.67;;;8.13;;
15899;SDS011;8048;50.644;6.184;2022-12-08T01:53:25;14.00;;;9.03;;
15899;SDS011;8048;50.644;6.184;2022-12-08T01:55:52;12.30;;;8.50;;
15899;SDS011;8048;50.644;6.184;2022-12-08T01:58:27;16.73;;;9.20;;
15899;SDS011;8048;50.644;6.184;2022-12-08T02:01:00;10.60;;;9.23;;
15899;SDS011;8048;50.644;6.184;2022-12-08T02:03:42;10.97;;;8.70;;
15899;SDS011;8048;50.644;6.184;2022-12-08T02:06:18;12.10;;;9.10;;
15899;SDS011;8048;50.644;6.184;2022-12-08T02:08:44;14.07;;;9.03;;
15899;SDS011;8048;50.644;6.184;2022-12-08T02:11:10;14.40;;;9.00;;
15899;SDS011;8048;50.644;6.184;2022-12-08T02:13:37;10.27;;;7.77;;
15899;SDS011;8048;50.644;6.184;2022-12-08T02:21:49;11.60;;;8.10;;
15899;SDS011;8048;50.644;6.184;2022-12-08T02:25:12;9.90;;;7.53;;
15899;SDS011;8048;50.644;6.184;2022-12-08T02:27:31;8.80;;;7.83;;
15899;SDS011;8048;50.644;6.184;2022-12-08T02:32:39;9.07;;;7.17;;
15899;SDS011;8048;50.644;6.184;2022-12-08T02:40:23;11.33;;;8.03;;
15899;SDS011;8048;50.644;6.184;2022-12-08T02:42:56;9.60;;;6.67;;
15899;SDS011;8048;50.644;6.184;2022-12-08T02:45:35;11.73;;;8.10;;
15899;SDS011;8048;50.644;6.184;2022-12-08T02:48:27;11.03;;;9.43;;
15899;SDS011;8048;50.644;6.184;2022-12-08T02:50:53;13.27;;;9.93;;
15899;SDS011;8048;50.644;6.184;2022-12-08T02:53:18;12.40;;;8.90;;
15899;SDS011;8048;50.644;6.184;2022-12-08T02:55:47;10.90;;;6.70;;
15899;SDS011;8048;50.644;6.184;2022-12-08T02:58:27;12.97;;;9.43;;
15899;SDS011;8048;50.644;6.184;2022-12-08T03:04:08;13.70;;;8.70;;
15899;SDS011;8048;50.644;6.184;2022-12-08T03:09:35;13.70;;;9.40;;
15899;SDS011;8048;50.644;6.184;2022-12-08T03:12:20;11.00;;;7.83;;
15899;SDS011;8048;50.644;6.184;2022-12-08T03:14:55;9.87;;;8.03;;
15899;SDS011;8048;50.644;6.184;2022-12-08T03:17:26;12.77;;;8.53;;
15899;SDS011;8048;50.644;6.184;2022-12-08T03:19:54;12.80;;;9.00;;
15899;SDS011;8048;50.644;6.184;2022-12-08T03:22:24;13.47;;;8.40;;
15899;SDS011;8048;50.644;6.184;2022-12-08T03:24:52;14.27;;;9.87;;
15899;SDS011;8048;50.644;6.184;2022-12-08T03:27:20;13.43;;;11.20;;
15899;SDS011;8048;50.644;6.184;2022-12-08T03:29:50;13.13;;;9.47;;
15899;SDS011;8048;50.644;6.184;2022-12-08T03:35:08;12.40;;;10.20;;
15899;SDS011;8048;50.644;6.184;2022-12-08T03:37:38;19.50;;;10.97;;
15899;SDS011;8048;50.644;6.184;2022-12-08T03:40:05;12.80;;;10.37;;
15899;SDS011;8048;50.644;6.184;2022-12-08T03:42:33;17.47;;;9.73;;
15899;SDS011;8048;50.644;6.184;2022-12-08T03:44:58;17.73;;;10.20;;
15899;SDS011;8048;50.644;6.184;2022-12-08T03:47:24;20.43;;;15.40;;
15899;SDS011;8048;50.644;6.184;2022-12-08T03:49:49;14.27;;;11.33;;
15899;SDS011;8048;50.644;6.184;2022-12-08T03:52:15;14.67;;;11.50;;
15899;SDS011;8048;50.644;6.184;2022-12-08T03:54:40;17.20;;;10.90;;
15899;SDS011;8048;50.644;6.184;2022-12-08T03:57:06;18.30;;;11.90;;
15899;SDS011;8048;50.644;6.184;2022-12-08T03:59:32;23.50;;;12.83;;
15899;SDS011;8048;50.644;6.184;2022-12-08T04:01:57;23.67;;;13.43;;
15899;SDS011;8048;50.644;6.184;2022-12-08T04:04:23;21.83;;;11.27;;
15899;SDS011;8048;50.644;6.184;2022-12-08T04:06:48;23.00;;;11.27;;
15899;SDS011;8048;50.644;6.184;2022-12-08T04:09:14;18.03;;;12.50;;
15899;SDS011;8048;50.644;6.184;2022-12-08T04:11:41;23.27;;;13.90;;
15899;SDS011;8048;50.644;6.184;2022-12-08T04:14:06;20.93;;;12.13;;
15899;SDS011;8048;50.644;6.184;2022-12-08T04:16:32;18.83;;;12.33;;
15899;SDS011;8048;50.644;6.184;2022-12-08T04:18:57;20.80;;;11.57;;
15899;SDS011;8048;50.644;6.184;2022-12-08T04:21:23;18.27;;;11.10;;
15899;SDS011;8048;50.644;6.184;2022-12-08T04:23:49;15.97;;;10.77;;
15899;SDS011;8048;50.644;6.184;2022-12-08T04:26:14;21.30;;;11.90;;
15899;SDS011;8048;50.644;6.184;2022-12-08T04:28:40;23.00;;;12.27;;
15899;SDS011;8048;50.644;6.184;2022-12-08T04:31:06;16.50;;;10.47;;
15899;SDS011;8048;50.644;6.184;2022-12-08T04:33:32;13.87;;;9.37;;
15899;SDS011;8048;50.644;6.184;2022-12-08T04:35:59;13.13;;;11.47;;
15899;SDS011;8048;50.644;6.184;2022-12-08T04:38:24;17.00;;;13.43;;
15899;SDS011;8048;50.644;6.184;2022-12-08T04:40:50;12.70;;;9.20;;
15899;SDS011;8048;50.644;6.184;2022-12-08T04:43:16;13.57;;;10.03;;
15899;SDS011;8048;50.644;6.184;2022-12-08T04:45:41;14.40;;;9.40;;
15899;SDS011;8048;50.644;6.184;2022-12-08T04:48:07;12.20;;;10.40;;
15899;SDS011;8048;50.644;6.184;2022-12-08T04:50:33;15.83;;;11.47;;
15899;SDS011;8048;50.644;6.184;2022-12-08T04:52:58;9.90;;;8.97;;
15899;SDS011;8048;50.644;6.184;2022-12-08T04:55:24;15.27;;;10.80;;
15899;SDS011;8048;50.644;6.184;2022-12-08T04:57:50;11.53;;;8.50;;
15899;SDS011;8048;50.644;6.184;2022-12-08T05:00:15;14.33;;;9.97;;
15899;SDS011;8048;50.644;6.184;2022-12-08T05:02:41;15.13;;;11.20;;
15899;SDS011;8048;50.644;6.184;2022-12-08T05:05:07;8.87;;;7.80;;
15899;SDS011;8048;50.644;6.184;2022-12-08T05:07:33;13.00;;;8.80;;
15899;SDS011;8048;50.644;6.184;2022-12-08T05:09:59;10.13;;;9.13;;
15899;SDS011;8048;50.644;6.184;2022-12-08T05:12:24;12.63;;;9.57;;
15899;SDS011;8048;50.644;6.184;2022-12-08T05:14:50;11.60;;;9.20;;
15899;SDS011;8048;50.644;6.184;2022-12-08T05:17:16;13.80;;;9.10;;
15899;SDS011;8048;50.644;6.184;2022-12-08T05:19:43;19.40;;;9.17;;
15899;SDS011;8048;50.644;6.184;2022-12-08T05:22:09;15.33;;;8.97;;
15899;SDS011;8048;50.644;6.184;2022-12-08T05:24:34;11.40;;;8.40;;
15899;SDS011;8048;50.644;6.184;2022-12-08T05:27:00;9.23;;;7.43;;
15899;SDS011;8048;50.644;6.184;2022-12-08T05:29:25;9.67;;;6.67;;
15899;SDS011;8048;50.644;6.184;2022-12-08T05:31:51;6.87;;;5.77;;
15899;SDS011;8048;50.644;6.184;2022-12-08T05:34:17;14.20;;;8.00;;
15899;SDS011;8048;50.644;6.184;2022-12-08T05:36:42;12.87;;;8.47;;
15899;SDS011;8048;50.644;6.184;2022-12-08T05:39:10;9.73;;;7.90;;
15899;SDS011;8048;50.644;6.184;2022-12-08T05:41:37;10.57;;;7.50;;
15899;SDS011;8048;50.644;6.184;2022-12-08T05:44:03;9.83;;;6.37;;
15899;SDS011;8048;50.644;6.184;2022-12-08T05:46:28;10.57;;;6.27;;
15899;SDS011;8048;50.644;6.184;2022-12-08T05:48:54;6.80;;;6.17;;
15899;SDS011;8048;50.644;6.184;2022-12-08T05:51:21;10.87;;;7.70;;
15899;SDS011;8048;50.644;6.184;2022-12-08T05:53:48;8.40;;;6.87;;
15899;SDS011;8048;50.644;6.184;2022-12-08T05:56:15;11.00;;;8.80;;
15899;SDS011;8048;50.644;6.184;2022-12-08T05:58:42;9.53;;;6.30;;
15899;SDS011;8048;50.644;6.184;2022-12-08T06:01:17;8.47;;;7.50;;
15899;SDS011;8048;50.644;6.184;2022-12-08T06:04:03;13.00;;;7.20;;
15899;SDS011;8048;50.644;6.184;2022-12-08T06:06:29;10.93;;;7.50;;
15899;SDS011;8048;50.644;6.184;2022-12-08T06:08:55;19.00;;;9.37;;
15899;SDS011;8048;50.644;6.184;2022-12-08T06:11:25;13.37;;;9.70;;
15899;SDS011;8048;50.644;6.184;2022-12-08T06:13:52;13.10;;;7.97;;
15899;SDS011;8048;50.644;6.184;2022-12-08T06:16:19;13.23;;;11.23;;
15899;SDS011;8048;50.644;6.184;2022-12-08T06:18:45;14.93;;;10.50;;
15899;SDS011;8048;50.644;6.184;2022-12-08T06:21:11;15.77;;;9.63;;
15899;SDS011;8048;50.644;6.184;2022-12-08T06:23:38;15.97;;;8.73;;
15899;SDS011;8048;50.644;6.184;2022-12-08T06:26:06;17.67;;;9.90;;
15899;SDS011;8048;50.644;6.184;2022-12-08T06:28:33;12.20;;;8.87;;
15899;SDS011;8048;50.644;6.184;2022-12-08T06:30:59;12.47;;;10.10;;
15899;SDS011;8048;50.644;6.184;2022-12-08T06:33:35;10.43;;;8.87;;
15899;SDS011;8048;50.644;6.184;2022-12-08T06:36:00;16.57;;;9.07;;
15899;SDS011;8048;50.644;6.184;2022-12-08T06:38:26;11.17;;;8.03;;
15899;SDS011;8048;50.644;6.184;2022-12-08T06:40:55;11.00;;;7.60;;
15899;SDS011;8048;50.644;6.184;2022-12-08T06:43:22;9.43;;;7.67;;
15899;SDS011;8048;50.644;6.184;2022-12-08T06:45:48;13.10;;;9.77;;
15899;SDS011;8048;50.644;6.184;2022-12-08T06:48:15;18.37;;;11.60;;
15899;SDS011;8048;50.644;6.184;2022-12-08T06:50:41;8.47;;;7.73;;
15899;SDS011;8048;50.644;6.184;2022-12-08T06:53:07;13.67;;;7.37;;
15899;SDS011;8048;50.644;6.184;2022-12-08T06:55:32;11.30;;;10.20;;
15899;SDS011;8048;50.644;6.184;2022-12-08T06:57:58;14.60;;;9.60;;
15899;SDS011;8048;50.644;6.184;2022-12-08T07:00:24;7.83;;;7.03;;
15899;SDS011;8048;50.644;6.184;2022-12-08T07:02:49;12.17;;;8.63;;
15899;SDS011;8048;50.644;6.184;2022-12-08T07:05:15;11.10;;;7.57;;
15899;SDS011;8048;50.644;6.184;2022-12-08T07:07:40;12.60;;;9.13;;
15899;SDS011;8048;50.644;6.184;2022-12-08T07:10:06;15.40;;;9.50;;
15899;SDS011;8048;50.644;6.184;2022-12-08T07:12:32;11.60;;;7.13;;
15899;SDS011;8048;50.644;6.184;2022-12-08T07:14:57;8.70;;;7.30;;
15899;SDS011;8048;50.644;6.184;2022-12-08T07:17:23;13.90;;;8.47;;
15899;SDS011;8048;50.644;6.184;2022-12-08T07:19:49;14.10;;;9.00;;
15899;SDS011;8048;50.644;6.184;2022-12-08T07:22:14;9.13;;;8.00;;
15899;SDS011;8048;50.644;6.184;2022-12-08T07:24:40;10.80;;;8.60;;
15899;SDS011;8048;50.644;6.184;2022-12-08T07:27:05;10.57;;;7.93;;
15899;SDS011;8048;50.644;6.184;2022-12-08T07:29:31;10.83;;;7.97;;
15899;SDS011;8048;50.644;6.184;2022-12-08T07:31:56;10.97;;;7.70;;
15899;SDS011;8048;50.644;6.184;2022-12-08T07:34:22;16.60;;;9.77;;
15899;SDS011;8048;50.644;6.184;2022-12-08T07:36:47;9.77;;;8.73;;
15899;SDS011;8048;50.644;6.184;2022-12-08T07:39:13;9.23;;;7.43;;
15899;SDS011;8048;50.644;6.184;2022-12-08T07:41:38;9.87;;;7.73;;
15899;SDS011;8048;50.644;6.184;2022-12-08T07:44:04;8.30;;;7.47;;
15899;SDS011;8048;50.644;6.184;2022-12-08T07:46:29;8.80;;;7.90;;
15899;SDS011;8048;50.644;6.184;2022-12-08T07:48:55;9.73;;;6.80;;
15899;SDS011;8048;50.644;6.184;2022-12-08T07:51:21;10.90;;;7.63;;
15899;SDS011;8048;50.644;6.184;2022-12-08T07:53:47;12.17;;;7.80;;
15899;SDS011;8048;50.644;6.184;2022-12-08T07:56:14;8.40;;;7.13;;
15899;SDS011;8048;50.644;6.184;2022-12-08T07:58:40;10.20;;;6.27;;
15899;SDS011;8048;50.644;6.184;2022-12-08T08:01:16;8.63;;;7.60;;
15899;SDS011;8048;50.644;6.184;2022-12-08T08:03:53;10.10;;;7.97;;
15899;SDS011;8048;50.644;6.184;2022-12-08T08:06:20;13.17;;;9.50;;
15899;SDS011;8048;50.644;6.184;2022-12-08T08:08:46;10.53;;;8.10;;
15899;SDS011;8048;50.644;6.184;2022-12-08T08:11:11;9.93;;;7.80;;
15899;SDS011;8048;50.644;6.184;2022-12-08T08:13:37;10.50;;;7.33;;
15899;SDS011;8048;50.644;6.184;2022-12-08T08:16:04;10.77;;;8.83;;
15899;SDS011;8048;50.644;6.184;2022-12-08T08:18:31;14.20;;;9.30;;
15899;SDS011;8048;50.644;6.184;2022-12-08T08:20:57;9.20;;;7.77;;
15899;SDS011;8048;50.644;6.184;2022-12-08T08:23:23;17.10;;;9.60;;
15899;SDS011;8048;50.644;6.184;2022-12-08T08:25:48;12.80;;;8.53;;
15899;SDS011;8048;50.644;6.184;2022-12-08T08:28:14;9.47;;;8.50;;
15899;SDS011;8048;50.644;6.184;2022-12-08T08:30:40;9.90;;;8.67;;
15899;SDS011;8048;50.644;6.184;2022-12-08T08:33:05;11.60;;;8.83;;
15899;SDS011;8048;50.644;6.184;2022-12-08T08:35:32;9.10;;;8.20;;
15899;SDS011;8048;50.644;6.184;2022-12-08T08:37:58;12.63;;;9.10;;
15899;SDS011;8048;50.644;6.184;2022-12-08T08:40:23;13.60;;;10.43;;
15899;SDS011;8048;50.644;6.184;2022-12-08T08:42:49;11.60;;;8.40;;
15899;SDS011;8048;50.644;6.184;2022-12-08T08:45:14;10.23;;;9.20;;
15899;SDS011;8048;50.644;6.184;2022-12-08T08:47:40;11.57;;;9.40;;
15899;SDS011;8048;50.644;6.184;2022-12-08T08:50:05;10.13;;;8.33;;
15899;SDS011;8048;50.644;6.184;2022-12-08T08:52:31;10.00;;;8.70;;
15899;SDS011;8048;50.644;6.184;2022-12-08T08:54:57;16.23;;;8.80;;
15899;SDS011;8048;50.644;6.184;2022-12-08T08:57:22;14.70;;;8.80;;
15899;SDS011;8048;50.644;6.184;2022-12-08T08:59:48;11.63;;;7.87;;
15899;SDS011;8048;50.644;6.184;2022-12-08T09:02:17;14.20;;;8.70;;
15899;SDS011;8048;50.644;6.184;2022-12-08T09:04:43;9.30;;;8.40;;
15899;SDS011;8048;50.644;6.184;2022-12-08T09:07:09;10.83;;;8.10;;
15899;SDS011;8048;50.644;6.184;2022-12-08T09:09:35;10.83;;;7.83;;
15899;SDS011;8048;50.644;6.184;2022-12-08T09:12:00;8.83;;;7.93;;
15899;SDS011;8048;50.644;6.184;2022-12-08T09:14:26;11.07;;;8.90;;
15899;SDS011;8048;50.644;6.184;2022-12-08T09:16:51;9.43;;;7.00;;
15899;SDS011;8048;50.644;6.184;2022-12-08T09:19:17;8.10;;;6.83;;
15899;SDS011;8048;50.644;6.184;2022-12-08T09:21:43;9.40;;;7.70;;
15899;SDS011;8048;50.644;6.184;2022-12-08T09:24:08;8.77;;;7.80;;
15899;SDS011;8048;50.644;6.184;2022-12-08T09:26:39;9.67;;;8.67;;
15899;SDS011;8048;50.644;6.184;2022-12-08T09:29:06;10.87;;;9.00;;
15899;SDS011;8048;50.644;6.184;2022-12-08T09:31:31;8.50;;;7.77;;
15899;SDS011;8048;50.644;6.184;2022-12-08T09:33:57;9.60;;;7.23;;
15899;SDS011;8048;50.644;6.184;2022-12-08T09:36:23;13.33;;;7.60;;
15899;SDS011;8048;50.644;6.184;2022-12-08T09:38:49;12.90;;;7.97;;
15899;SDS011;8048;50.644;6.184;2022-12-08T09:41:16;9.60;;;8.63;;
15899;SDS011;8048;50.644;6.184;2022-12-08T09:46:58;9.27;;;7.83;;
15899;SDS011;8048;50.644;6.184;2022-12-08T09:49:39;10.13;;;7.50;;
15899;SDS011;8048;50.644;6.184;2022-12-08T09:52:21;7.27;;;6.57;;
15899;SDS011;8048;50.644;6.184;2022-12-08T09:54:50;9.30;;;8.23;;
15899;SDS011;8048;50.644;6.184;2022-12-08T09:57:17;11.47;;;8.00;;
15899;SDS011;8048;50.644;6.184;2022-12-08T09:59:51;8.90;;;7.60;;
15899;SDS011;8048;50.644;6.184;2022-12-08T10:02:22;10.03;;;6.87;;
15899;SDS011;8048;50.644;6.184;2022-12-08T10:04:48;10.60;;;8.13;;
15899;SDS011;8048;50.644;6.184;2022-12-08T10:10:24;10.93;;;7.80;;
15899;SDS011;8048;50.644;6.184;2022-12-08T10:15:48;10.30;;;6.53;;
15899;SDS011;8048;50.644;6.184;2022-12-08T10:18:26;7.30;;;6.03;;
15899;SDS011;8048;50.644;6.184;2022-12-08T10:20:54;12.27;;;8.60;;
15899;SDS011;8048;50.644;6.184;2022-12-08T10:23:34;9.80;;;7.43;;
15899;SDS011;8048;50.644;6.184;2022-12-08T10:26:05;8.87;;;6.53;;
15899;SDS011;8048;50.644;6.184;2022-12-08T10:28:35;11.00;;;6.83;;
15899;SDS011;8048;50.644;6.184;2022-12-08T10:31:00;7.57;;;6.30;;
15899;SDS011;8048;50.644;6.184;2022-12-08T10:33:26;13.10;;;6.33;;
15899;SDS011;8048;50.644;6.184;2022-12-08T10:35:54;7.70;;;6.90;;
15899;SDS011;8048;50.644;6.184;2022-12-08T10:38:25;9.60;;;7.80;;
15899;SDS011;8048;50.644;6.184;2022-12-08T10:40:58;7.83;;;7.10;;
15899;SDS011;8048;50.644;6.184;2022-12-08T10:43:46;7.27;;;5.87;;
15899;SDS011;8048;50.644;6.184;2022-12-08T10:46:20;7.97;;;7.13;;
15899;SDS011;8048;50.644;6.184;2022-12-08T10:48:53;8.93;;;6.90;;
15899;SDS011;8048;50.644;6.184;2022-12-08T10:53:53;10.00;;;8.00;;
15899;SDS011;8048;50.644;6.184;2022-12-08T10:56:19;11.40;;;5.27;;
15899;SDS011;8048;50.644;6.184;2022-12-08T10:58:55;11.37;;;8.07;;
15899;SDS011;8048;50.644;6.184;2022-12-08T11:01:39;10.03;;;8.17;;
15899;SDS011;8048;50.644;6.184;2022-12-08T11:04:18;9.80;;;8.40;;
15899;SDS011;8048;50.644;6.184;2022-12-08T11:06:46;13.93;;;8.70;;
15899;SDS011;8048;50.644;6.184;2022-12-08T11:16:48;9.93;;;7.80;;
15899;SDS011;8048;50.644;6.184;2022-12-08T11:19:16;11.10;;;6.77;;
15899;SDS011;8048;50.644;6.184;2022-12-08T11:21:43;12.07;;;8.13;;
15899;SDS011;8048;50.644;6.184;2022-12-08T11:24:16;12.97;;;7.70;;
15899;SDS011;8048;50.644;6.184;2022-12-08T11:26:52;9.67;;;8.00;;
15899;SDS011;8048;50.644;6.184;2022-12-08T11:29:23;8.10;;;6.73;;
15899;SDS011;8048;50.644;6.184;2022-12-08T11:31:51;11.20;;;8.17;;
15899;SDS011;8048;50.644;6.184;2022-12-08T11:34:34;9.30;;;7.50;;
15899;SDS011;8048;50.644;6.184;2022-12-08T11:39:48;8.83;;;7.37;;
15899;SDS011;8048;50.644;6.184;2022-12-08T11:42:17;9.93;;;7.73;;
15899;SDS011;8048;50.644;6.184;2022-12-08T11:47:25;11.70;;;7.77;;
15899;SDS011;8048;50.644;6.184;2022-12-08T11:50:01;9.80;;;7.63;;
15899;SDS011;8048;50.644;6.184;2022-12-08T11:52:42;9.67;;;8.50;;
15899;SDS011;8048;50.644;6.184;2022-12-08T11:55:31;9.23;;;6.57;;
15899;SDS011;8048;50.644;6.184;2022-12-08T11:58:10;9.70;;;7.90;;
15899;SDS011;8048;50.644;6.184;2022-12-08T12:00:45;7.77;;;6.17;;
15899;SDS011;8048;50.644;6.184;2022-12-08T12:03:16;12.73;;;7.47;;
15899;SDS011;8048;50.644;6.184;2022-12-08T12:08:45;9.60;;;6.70;;
15899;SDS011;8048;50.644;6.184;2022-12-08T12:19:58;9.47;;;5.63;;
15899;SDS011;8048;50.644;6.184;2022-12-08T12:22:30;9.03;;;7.03;;
15899;SDS011;8048;50.644;6.184;2022-12-08T12:24:58;13.03;;;8.67;;
15899;SDS011;8048;50.644;6.184;2022-12-08T12:27:29;9.70;;;5.87;;
15899;SDS011;8048;50.644;6.184;2022-12-08T12:30:03;9.57;;;6.33;;
15899;SDS011;8048;50.644;6.184;2022-12-08T12:32:50;7.07;;;6.20;;
15899;SDS011;8048;50.644;6.184;2022-12-08T12:35:26;5.70;;;5.10;;
15899;SDS011;8048;50.644;6.184;2022-12-08T12:38:06;7.43;;;6.60;;
15899;SDS011;8048;50.644;6.184;2022-12-08T12:41:00;9.83;;;5.33;;
15899;SDS011;8048;50.644;6.184;2022-12-08T12:43:29;8.57;;;7.67;;
15899;SDS011;8048;50.644;6.184;2022-12-08T12:48:51;8.63;;;6.37;;
15899;SDS011;8048;50.644;6.184;2022-12-08T12:51:59;6.67;;;5.97;;
15899;SDS011;8048;50.644;6.184;2022-12-08T12:54:19;16.20;;;6.50;;
15899;SDS011;8048;50.644;6.184;2022-12-08T13:01:59;9.00;;;6.03;;
15899;SDS011;8048;50.644;6.184;2022-12-08T13:04:30;6.73;;;5.33;;
15899;SDS011;8048;50.644;6.184;2022-12-08T13:06:58;9.37;;;6.03;;
15899;SDS011;8048;50.644;6.184;2022-12-08T13:09:31;11.40;;;7.30;;
15899;SDS011;8048;50.644;6.184;2022-12-08T13:12:06;10.30;;;7.00;;
15899;SDS011;8048;50.644;6.184;2022-12-08T13:14:35;8.50;;;6.40;;
15899;SDS011;8048;50.644;6.184;2022-12-08T13:17:11;7.13;;;5.83;;
15899;SDS011;8048;50.644;6.184;2022-12-08T13:19:40;10.17;;;6.40;;
15899;SDS011;8048;50.644;6.184;2022-12-08T13:28:15;6.70;;;5.10;;
15899;SDS011;8048;50.644;6.184;2022-12-08T13:30:45;7.43;;;5.90;;
15899;SDS011;8048;50.644;6.184;2022-12-08T13:33:23;8.00;;;6.13;;
15899;SDS011;8048;50.644;6.184;2022-12-08T13:35:54;8.83;;;5.60;;
15899;SDS011;8048;50.644;6.184;2022-12-08T13:38:26;10.37;;;5.83;;
15899;SDS011;8048;50.644;6.184;2022-12-08T13:40:55;7.67;;;6.00;;
15899;SDS011;8048;50.644;6.184;2022-12-08T13:43:25;8.40;;;5.33;;
15899;SDS011;8048;50.644;6.184;2022-12-08T13:46:30;7.33;;;5.10;;
15899;SDS011;8048;50.644;6.184;2022-12-08T13:49:03;8.20;;;4.93;;
15899;SDS011;8048;50.644;6.184;2022-12-08T13:51:38;8.00;;;5.00;;
15899;SDS011;8048;50.644;6.184;2022-12-08T13:54:17;8.97;;;5.73;;
15899;SDS011;8048;50.644;6.184;2022-12-08T13:57:16;11.23;;;6.43;;
15899;SDS011;8048;50.644;6.184;2022-12-08T13:59:49;6.23;;;5.57;;
15899;SDS011;8048;50.644;6.184;2022-12-08T14:02:17;10.23;;;5.53;;
15899;SDS011;8048;50.644;6.184;2022-12-08T14:05:03;8.20;;;6.10;;
15899;SDS011;8048;50.644;6.184;2022-12-08T14:07:30;7.17;;;4.80;;
15899;SDS011;8048;50.644;6.184;2022-12-08T14:09:57;6.80;;;6.10;;
15899;SDS011;8048;50.644;6.184;2022-12-08T14:12:25;9.00;;;5.03;;
15899;SDS011;8048;50.644;6.184;2022-12-08T14:15:04;7.27;;;5.57;;
15899;SDS011;8048;50.644;6.184;2022-12-08T14:17:31;8.63;;;6.67;;
15899;SDS011;8048;50.644;6.184;2022-12-08T14:20:12;6.80;;;5.67;;
15899;SDS011;8048;50.644;6.184;2022-12-08T14:23:05;7.90;;;5.40;;
15899;SDS011;8048;50.644;6.184;2022-12-08T14:25:31;7.50;;;6.40;;
15899;SDS011;8048;50.644;6.184;2022-12-08T14:28:00;6.37;;;5.37;;
15899;SDS011;8048;50.644;6.184;2022-12-08T14:30:29;6.17;;;4.97;;
15899;SDS011;8048;50.644;6.184;2022-12-08T14:32:57;6.93;;;5.40;;
15899;SDS011;8048;50.644;6.184;2022-12-08T14:35:28;5.77;;;5.20;;
15899;SDS011;8048;50.644;6.184;2022-12-08T14:38:02;6.93;;;4.30;;
15899;SDS011;8048;50.644;6.184;2022-12-08T14:48:24;4.43;;;2.97;;
15899;SDS011;8048;50.644;6.184;2022-12-08T14:56:30;3.27;;;2.97;;
15899;SDS011;8048;50.644;6.184;2022-12-08T15:04:46;4.23;;;3.83;;
15899;SDS011;8048;50.644;6.184;2022-12-08T15:07:20;5.10;;;4.33;;
15899;SDS011;8048;50.644;6.184;2022-12-08T15:09:48;11.73;;;4.50;;
15899;SDS011;8048;50.644;6.184;2022-12-08T15:12:30;4.60;;;4.30;;
15899;SDS011;8048;50.644;6.184;2022-12-08T15:14:59;4.90;;;4.23;;
15899;SDS011;8048;50.644;6.184;2022-12-08T15:23:05;4.83;;;4.43;;
15899;SDS011;8048;50.644;6.184;2022-12-08T15:25:41;5.20;;;4.00;;
15899;SDS011;8048;50.644;6.184;2022-12-08T15:28:07;4.47;;;4.10;;
15899;SDS011;8048;50.644;6.184;2022-12-08T15:30:35;5.40;;;4.90;;
15899;SDS011;8048;50.644;6.184;2022-12-08T15:33:01;13.43;;;5.23;;
15899;SDS011;8048;50.644;6.184;2022-12-08T15:35:26;6.77;;;6.10;;
15899;SDS011;8048;50.644;6.184;2022-12-08T15:37:52;6.03;;;4.40;;
15899;SDS011;8048;50.644;6.184;2022-12-08T15:40:19;5.07;;;4.27;;
15899;SDS011;8048;50.644;6.184;2022-12-08T15:42:46;5.07;;;4.50;;
15899;SDS011;8048;50.644;6.184;2022-12-08T15:45:13;10.23;;;4.77;;
15899;SDS011;8048;50.644;6.184;2022-12-08T15:47:40;5.57;;;5.03;;
15899;SDS011;8048;50.644;6.184;2022-12-08T15:50:13;7.07;;;5.97;;
15899;SDS011;8048;50.644;6.184;2022-12-08T15:52:41;6.67;;;5.33;;
15899;SDS011;8048;50.644;6.184;2022-12-08T15:55:10;6.73;;;5.30;;
15899;SDS011;8048;50.644;6.184;2022-12-08T15:57:41;6.50;;;5.00;;
15899;SDS011;8048;50.644;6.184;2022-12-08T16:02:49;6.57;;;4.40;;
15899;SDS011;8048;50.644;6.184;2022-12-08T16:05:15;7.30;;;5.70;;
15899;SDS011;8048;50.644;6.184;2022-12-08T16:07:40;7.87;;;5.43;;
15899;SDS011;8048;50.644;6.184;2022-12-08T16:10:06;6.67;;;5.90;;
15899;SDS011;8048;50.644;6.184;2022-12-08T16:12:34;6.50;;;5.90;;
15899;SDS011;8048;50.644;6.184;2022-12-08T16:15:18;8.50;;;6.50;;
15899;SDS011;8048;50.644;6.184;2022-12-08T16:17:44;6.57;;;4.87;;
15899;SDS011;8048;50.644;6.184;2022-12-08T16:20:14;6.70;;;6.00;;
15899;SDS011;8048;50.644;6.184;2022-12-08T16:22:42;6.30;;;5.57;;
15899;SDS011;8048;50.644;6.184;2022-12-08T16:25:08;8.43;;;6.50;;
15899;SDS011;8048;50.644;6.184;2022-12-08T16:27:34;9.50;;;6.23;;
15899;SDS011;8048;50.644;6.184;2022-12-08T16:30:02;16.00;;;7.77;;
15899;SDS011;8048;50.644;6.184;2022-12-08T16:32:29;7.63;;;6.93;;
15899;SDS011;8048;50.644;6.184;2022-12-08T16:34:54;7.73;;;7.00;;
15899;SDS011;8048;50.644;6.184;2022-12-08T16:37:21;6.80;;;5.93;;
15899;SDS011;8048;50.644;6.184;2022-12-08T16:39:49;6.70;;;6.07;;
15899;SDS011;8048;50.644;6.184;2022-12-08T16:42:16;6.57;;;5.83;;
15899;SDS011;8048;50.644;6.184;2022-12-08T16:45:02;7.00;;;5.50;;
15899;SDS011;8048;50.644;6.184;2022-12-08T16:47:29;5.77;;;5.27;;